createdAt,value
2019-04-14T00:00:30.016Z,28.3
2019-04-14T00:01:19.220Z,28.3
2019-04-14T00:02:07.861Z,28.2
2019-04-14T00:02:58.730Z,28.1
2019-04-14T00:03:47.524Z,28.1
2019-04-14T00:04:40.316Z,28
2019-04-14T00:05:37.176Z,27.9
2019-04-14T00:06:20.686Z,27.9
2019-04-14T00:07:58.628Z,27.7
2019-04-14T00:08:50.588Z,27.6
2019-04-14T00:09:40.576Z,27.6
2019-04-14T00:10:31.646Z,27.4
2019-04-14T00:11:21.148Z,27.4
2019-04-14T00:12:18.956Z,27.3
2019-04-14T00:13:02.415Z,27.2
2019-04-14T00:13:52.898Z,27.1
2019-04-14T00:14:42.429Z,27.1
2019-04-14T00:16:05.804Z,27
2019-04-14T00:16:25.439Z,26.9
2019-04-14T00:17:17.732Z,26.8
2019-04-14T00:18:07.437Z,26.8
2019-04-14T00:18:55.999Z,26.7
2019-04-14T00:19:46.132Z,26.6
2019-04-14T00:20:34.139Z,26.4
2019-04-14T00:21:26.565Z,26.4
2019-04-14T00:22:16.775Z,27.4
2019-04-14T00:23:06.487Z,28.2
2019-04-14T00:23:57.078Z,28.8
2019-04-14T00:24:46.629Z,29.2
2019-04-14T00:25:37.482Z,29.6
2019-04-14T00:26:26.931Z,30.1
2019-04-14T00:27:19.198Z,30.4
2019-04-14T00:28:07.323Z,30.8
2019-04-14T00:28:57.872Z,31.2
2019-04-14T00:29:47.919Z,31.5
2019-04-14T00:30:38.767Z,31.9
2019-04-14T00:31:28.382Z,32.1
2019-04-14T00:32:16.730Z,32.4
2019-04-14T00:33:06.937Z,32.7
2019-04-14T00:33:58.465Z,32.1
2019-04-14T00:34:46.962Z,31.7
2019-04-14T00:35:36.634Z,31.6
2019-04-14T00:36:26.779Z,31.3
2019-04-14T00:37:18.205Z,30.8
2019-04-14T00:38:10.583Z,30.4
2019-04-14T00:38:57.176Z,30.2
2019-04-14T00:39:47.519Z,30
2019-04-14T00:40:43.785Z,29.8
2019-04-14T00:42:06.648Z,29.7
2019-04-14T00:42:27.710Z,29.5
2019-04-14T00:43:18.224Z,29.5
2019-04-14T00:44:08.343Z,29.4
2019-04-14T00:44:58.576Z,29.4
2019-04-14T00:46:15.159Z,29.4
2019-04-14T00:46:45.145Z,29.3
2019-04-14T00:47:27.248Z,29.3
2019-04-14T00:48:36.587Z,29.3
2019-04-14T00:49:09.180Z,29.1
2019-04-14T00:49:59.289Z,29.1
2019-04-14T00:50:47.287Z,29.1
2019-04-14T00:51:44.888Z,29
2019-04-14T00:52:28.183Z,28.9
2019-04-14T00:53:20.560Z,28.9
2019-04-14T00:54:09.138Z,28.8
2019-04-14T00:54:59.126Z,28.8
2019-04-14T00:55:48.646Z,28.7
2019-04-14T00:56:37.400Z,28.6
2019-04-14T00:57:29.142Z,28.6
2019-04-14T00:58:17.285Z,28.5
2019-04-14T00:59:08.967Z,28.4
2019-04-14T00:59:57.823Z,28.3
2019-04-14T01:00:51.743Z,28.2
2019-04-14T01:01:39.698Z,28.2
2019-04-14T01:02:27.988Z,28.1
2019-04-14T01:03:20.408Z,28
2019-04-14T01:04:07.887Z,27.9
2019-04-14T01:04:57.656Z,27.9
2019-04-14T01:05:50.310Z,27.8
2019-04-14T01:06:40.358Z,27.7
2019-04-14T01:07:30.398Z,27.6
2019-04-14T01:08:20.545Z,27.5
2019-04-14T01:09:08.486Z,27.5
2019-04-14T01:09:58.045Z,27.4
2019-04-14T01:10:50.216Z,27.3
2019-04-14T01:11:40.470Z,27.3
2019-04-14T01:12:32.003Z,27.2
2019-04-14T01:13:27.235Z,27.1
2019-04-14T01:14:10.597Z,27
2019-04-14T01:15:01.018Z,26.9
2019-04-14T01:16:37.146Z,26.4
2019-04-14T01:17:00.420Z,27.8
2019-04-14T01:17:48.537Z,28.1
2019-04-14T01:18:40.565Z,28.7
2019-04-14T01:19:29.179Z,29.1
2019-04-14T01:20:19.434Z,29.6
2019-04-14T01:21:11.464Z,29.9
2019-04-14T01:22:00.930Z,30.3
2019-04-14T01:22:49.339Z,30.7
2019-04-14T01:23:41.712Z,31
2019-04-14T01:24:31.431Z,31.4
2019-04-14T01:25:21.425Z,31.7
2019-04-14T01:26:10.330Z,32
2019-04-14T01:26:57.749Z,32.3
2019-04-14T01:27:49.502Z,32.5
2019-04-14T01:28:38.241Z,32.4
2019-04-14T01:29:29.666Z,31.6
2019-04-14T01:30:21.886Z,31.6
2019-04-14T01:31:11.875Z,31.3
2019-04-14T01:32:00.628Z,30.9
2019-04-14T01:32:52.094Z,30.5
2019-04-14T01:33:42.174Z,30.3
2019-04-14T01:34:30.668Z,30
2019-04-14T01:35:21.321Z,29.9
2019-04-14T01:36:12.652Z,29.8
2019-04-14T01:37:01.273Z,29.7
2019-04-14T01:37:50.695Z,29.6
2019-04-14T01:38:40.850Z,29.5
2019-04-14T01:39:30.746Z,29.5
2019-04-14T01:40:22.727Z,29.4
2019-04-14T01:41:12.711Z,29.4
2019-04-14T01:42:01.161Z,29.3
2019-04-14T01:42:52.963Z,29.3
2019-04-14T01:43:42.706Z,29.3
2019-04-14T01:44:31.224Z,29.2
2019-04-14T01:45:21.595Z,29.1
2019-04-14T01:46:48.213Z,29.1
2019-04-14T01:47:14.233Z,29
2019-04-14T01:48:01.690Z,28.9
2019-04-14T01:48:52.348Z,28.9
2019-04-14T01:49:41.599Z,28.8
2019-04-14T01:50:32.104Z,28.8
2019-04-14T01:51:20.782Z,28.7
2019-04-14T01:52:10.786Z,28.6
2019-04-14T01:53:01.555Z,28.6
2019-04-14T01:53:51.505Z,28.5
2019-04-14T01:54:41.405Z,28.4
2019-04-14T01:55:29.311Z,28.3
2019-04-14T01:56:21.389Z,28.3
2019-04-14T01:57:13.168Z,28.2
2019-04-14T01:58:01.687Z,28.1
2019-04-14T01:58:49.644Z,28
2019-04-14T01:59:41.475Z,27.9
2019-04-14T02:01:21.634Z,27.8
2019-04-14T02:02:12.359Z,27.7
2019-04-14T02:02:59.415Z,27.6
2019-04-14T02:03:50.409Z,27.5
2019-04-14T02:04:41.769Z,27.4
2019-04-14T02:05:29.649Z,27.4
2019-04-14T02:06:20.427Z,27.3
2019-04-14T02:07:12.842Z,27.2
2019-04-14T02:08:02.820Z,27.1
2019-04-14T02:08:52.954Z,27.1
2019-04-14T02:09:44.625Z,26.9
2019-04-14T02:10:33.118Z,26.5
2019-04-14T02:11:23.059Z,27.4
2019-04-14T02:12:12.739Z,28.1
2019-04-14T02:13:03.334Z,28.8
2019-04-14T02:13:53.409Z,29.2
2019-04-14T02:14:41.346Z,29.6
2019-04-14T02:15:33.520Z,30
2019-04-14T02:17:18.241Z,30.4
2019-04-14T02:17:41.609Z,31.1
2019-04-14T02:18:30.332Z,31.3
2019-04-14T02:19:22.509Z,31.6
2019-04-14T02:20:12.596Z,31.9
2019-04-14T02:21:02.609Z,32.3
2019-04-14T02:21:54.049Z,32.5
2019-04-14T02:22:41.895Z,32.1
2019-04-14T02:23:34.336Z,31.6
2019-04-14T02:24:24.113Z,31.5
2019-04-14T02:25:11.804Z,31.3
2019-04-14T02:26:05.152Z,30.9
2019-04-14T02:26:54.650Z,30.5
2019-04-14T02:27:42.856Z,30.3
2019-04-14T02:28:33.047Z,30.1
2019-04-14T02:29:21.694Z,29.9
2019-04-14T02:34:15.352Z,29.8
2019-04-14T02:48:55.139Z,29.3
2019-04-14T03:46:41.197Z,29
2019-04-14T03:56:21.598Z,27.6
2019-04-14T03:56:44.456Z,27.1
2019-04-14T03:57:41.378Z,26.9
2019-04-14T03:58:29.741Z,26.8
2019-04-14T03:59:13.263Z,27.6
2019-04-14T04:00:03.695Z,28.3
2019-04-14T04:00:55.636Z,28.9
2019-04-14T04:01:43.421Z,29.4
2019-04-14T04:02:33.918Z,29.8
2019-04-14T04:03:22.266Z,30.2
2019-04-14T04:04:16.059Z,30.6
2019-04-14T04:05:04.176Z,30.9
2019-04-14T04:05:56.898Z,31.3
2019-04-14T04:06:46.277Z,31.6
2019-04-14T04:07:36.400Z,31.9
2019-04-14T04:08:25.388Z,32.1
2019-04-14T04:09:15.645Z,32.4
2019-04-14T04:10:07.208Z,32.7
2019-04-14T04:10:55.332Z,31.7
2019-04-14T04:11:46.192Z,31.6
2019-04-14T04:12:36.193Z,31.5
2019-04-14T04:13:27.967Z,31.1
2019-04-14T04:14:15.923Z,30.7
2019-04-14T04:15:08.260Z,30.4
2019-04-14T04:15:54.689Z,30.3
2019-04-14T04:16:46.370Z,30.1
2019-04-14T04:17:36.171Z,29.9
2019-04-14T04:18:25.067Z,29.8
2019-04-14T04:19:33.799Z,29.8
2019-04-14T04:20:05.062Z,29.6
2019-04-14T04:20:57.112Z,29.6
2019-04-14T04:21:47.102Z,29.6
2019-04-14T04:22:36.810Z,29.5
2019-04-14T04:23:26.975Z,29.4
2019-04-14T04:24:15.419Z,29.4
2019-04-14T04:25:07.280Z,29.4
2019-04-14T04:25:57.427Z,29.3
2019-04-14T04:26:47.138Z,29.3
2019-04-14T04:27:35.140Z,29.2
2019-04-14T04:28:25.607Z,29.1
2019-04-14T04:29:17.813Z,29.1
2019-04-14T04:30:07.981Z,29
2019-04-14T04:30:55.851Z,28.9
2019-04-14T04:31:44.189Z,28.8
2019-04-14T04:32:38.034Z,28.8
2019-04-14T04:33:28.407Z,28.7
2019-04-14T04:34:16.699Z,28.6
2019-04-14T04:35:08.462Z,28.5
2019-04-14T04:35:58.319Z,28.4
2019-04-14T04:36:46.035Z,28.4
2019-04-14T04:37:37.351Z,28.3
2019-04-14T04:38:28.774Z,28.2
2019-04-14T04:39:17.000Z,28.1
2019-04-14T04:40:07.685Z,28
2019-04-14T04:40:55.476Z,27.9
2019-04-14T04:41:49.316Z,27.9
2019-04-14T04:42:37.040Z,27.8
2019-04-14T04:43:27.569Z,27.6
2019-04-14T04:44:20.117Z,27.6
2019-04-14T04:45:08.099Z,27.4
2019-04-14T04:45:55.866Z,27.4
2019-04-14T04:46:48.913Z,27.3
2019-04-14T04:47:36.672Z,27.2
2019-04-14T04:48:29.000Z,27.1
2019-04-14T04:49:44.696Z,27.1
2019-04-14T04:50:10.661Z,26.9
2019-04-14T04:50:58.537Z,26.8
2019-04-14T04:51:49.167Z,26.5
2019-04-14T04:52:38.559Z,27.3
2019-04-14T04:53:29.273Z,28.2
2019-04-14T04:54:20.854Z,28.8
2019-04-14T04:55:08.847Z,29.3
2019-04-14T04:55:59.191Z,29.8
2019-04-14T04:56:47.230Z,30.2
2019-04-14T04:57:37.537Z,30.6
2019-04-14T04:58:26.687Z,30.9
2019-04-14T04:59:19.116Z,31.3
2019-04-14T05:00:11.378Z,31.6
2019-04-14T05:01:12.372Z,31.9
2019-04-14T05:01:47.860Z,32.3
2019-04-14T05:02:41.693Z,32.5
2019-04-14T05:03:30.190Z,32.2
2019-04-14T05:04:19.489Z,31.6
2019-04-14T05:05:08.384Z,31.6
2019-04-14T05:05:58.384Z,31.3
2019-04-14T05:06:49.038Z,30.9
2019-04-14T05:07:38.131Z,30.6
2019-04-14T05:08:28.599Z,30.3
2019-04-14T05:09:18.603Z,30.1
2019-04-14T05:10:10.975Z,29.9
2019-04-14T05:10:59.392Z,29.8
2019-04-14T05:11:47.457Z,29.7
2019-04-14T05:12:39.080Z,29.6
2019-04-14T05:13:27.504Z,29.6
2019-04-14T05:14:21.578Z,29.5
2019-04-14T05:15:10.107Z,29.4
2019-04-14T05:16:01.787Z,29.4
2019-04-14T05:16:47.083Z,29.3
2019-04-14T05:17:41.466Z,29.3
2019-04-14T05:18:29.283Z,29.3
2019-04-14T05:19:53.951Z,29.2
2019-04-14T05:20:18.560Z,29.1
2019-04-14T05:21:08.082Z,29.1
2019-04-14T05:21:55.901Z,29
2019-04-14T05:22:48.551Z,28.9
2019-04-14T05:23:38.752Z,28.9
2019-04-14T05:24:25.073Z,28.8
2019-04-14T05:25:17.261Z,28.8
2019-04-14T05:26:07.059Z,28.6
2019-04-14T05:26:59.156Z,28.6
2019-04-14T05:27:47.818Z,28.5
2019-04-14T05:28:37.965Z,28.4
2019-04-14T05:29:27.478Z,28.3
2019-04-14T05:30:17.465Z,28.3
2019-04-14T05:31:09.677Z,28.2
2019-04-14T05:31:55.976Z,28.1
2019-04-14T05:32:45.504Z,28
2019-04-14T05:33:36.548Z,27.9
2019-04-14T05:34:26.601Z,27.9
2019-04-14T05:35:18.312Z,27.8
2019-04-14T05:36:06.535Z,27.7
2019-04-14T05:36:54.188Z,27.6
2019-04-14T05:37:46.457Z,27.5
2019-04-14T05:38:45.698Z,27.4
2019-04-14T05:39:29.029Z,27.4
2019-04-14T05:40:18.788Z,27.3
2019-04-14T05:41:08.986Z,27.2
2019-04-14T05:42:40.943Z,27.1
2019-04-14T05:43:02.945Z,26.9
2019-04-14T05:44:17.160Z,26.8
2019-04-14T05:44:43.077Z,27
2019-04-14T05:45:32.962Z,27.5
2019-04-14T05:46:21.657Z,28.4
2019-04-14T05:47:13.180Z,29
2019-04-14T05:48:05.285Z,29.5
2019-04-14T05:48:54.140Z,29.9
2019-04-14T05:50:09.983Z,30.4
2019-04-14T05:50:33.997Z,30.9
2019-04-14T05:51:30.994Z,31.1
2019-04-14T05:52:12.499Z,31.6
2019-04-14T05:53:02.746Z,31.9
2019-04-14T05:53:52.867Z,32.2
2019-04-14T05:54:43.204Z,32.5
2019-04-14T05:55:33.749Z,32.8
2019-04-14T05:56:23.033Z,31.9
2019-04-14T05:57:13.280Z,31.8
2019-04-14T05:58:02.147Z,31.6
2019-04-14T05:58:53.516Z,31.3
2019-04-14T05:59:43.945Z,30.9
2019-04-14T06:00:36.261Z,30.6
2019-04-14T06:01:24.729Z,30.3
2019-04-14T06:02:12.086Z,30.1
2019-04-14T06:03:03.709Z,30
2019-04-14T06:05:19.457Z,29.8
2019-04-14T06:05:56.954Z,29.8
2019-04-14T06:06:46.264Z,29.8
2019-04-14T06:07:36.283Z,29.7
2019-04-14T06:08:26.309Z,29.6
2019-04-14T06:09:16.911Z,29.6
2019-04-14T06:10:06.176Z,29.6
2019-04-14T06:10:55.911Z,29.5
2019-04-14T06:11:46.868Z,29.5
2019-04-14T06:12:36.048Z,29.4
2019-04-14T06:13:26.958Z,29.4
2019-04-14T06:14:16.005Z,29.3
2019-04-14T06:15:06.870Z,29.3
2019-04-14T06:15:56.570Z,29.1
2019-04-14T06:16:47.462Z,29.1
2019-04-14T06:17:37.013Z,29
2019-04-14T06:18:25.998Z,28.9
2019-04-14T06:19:16.872Z,28.9
2019-04-14T06:20:07.276Z,28.8
2019-04-14T06:20:57.010Z,28.8
2019-04-14T06:21:47.080Z,28.7
2019-04-14T06:22:36.883Z,28.6
2019-04-14T06:23:27.485Z,28.6
2019-04-14T06:24:18.055Z,28.4
2019-04-14T06:25:07.479Z,28.4
2019-04-14T06:25:57.418Z,28.3
2019-04-14T06:26:47.805Z,28.3
2019-04-14T06:27:37.771Z,28.1
2019-04-14T06:28:27.582Z,28.1
2019-04-14T06:29:16.771Z,28
2019-04-14T06:30:07.695Z,27.9
2019-04-14T06:31:47.787Z,27.8
2019-04-14T06:32:37.552Z,27.6
2019-04-14T06:33:26.262Z,27.5
2019-04-14T06:34:17.422Z,27.4
2019-04-14T06:35:08.329Z,27.3
2019-04-14T06:35:58.094Z,27.3
2019-04-14T06:36:48.402Z,27.2
2019-04-14T06:37:36.932Z,27.1
2019-04-14T06:38:27.609Z,27
2019-04-14T06:39:18.137Z,26.9
2019-04-14T06:40:07.654Z,26.9
2019-04-14T06:40:58.472Z,26.8
2019-04-14T06:41:48.314Z,26.7
2019-04-14T06:42:38.802Z,26.6
2019-04-14T06:43:28.646Z,26.6
2019-04-14T06:44:17.697Z,26.5
2019-04-14T06:45:08.549Z,26.5
2019-04-14T06:45:59.007Z,26.4
2019-04-14T06:46:50.002Z,26.4
2019-04-14T06:47:39.131Z,26.3
2019-04-14T06:48:29.481Z,26.2
2019-04-14T06:49:19.357Z,26.1
2019-04-14T06:50:09.149Z,26.1
2019-04-14T06:50:59.654Z,26
2019-04-14T06:51:48.953Z,25.9
2019-04-14T06:52:39.881Z,25.9
2019-04-14T06:53:30.186Z,26.9
2019-04-14T06:54:19.704Z,27.9
2019-04-14T06:55:09.778Z,28.7
2019-04-14T06:56:01.621Z,29.3
2019-04-14T06:56:49.553Z,29.8
2019-04-14T06:57:39.988Z,30.3
2019-04-14T06:58:30.191Z,30.7
2019-04-14T06:59:19.761Z,31.1
2019-04-14T07:00:10.209Z,30.3
2019-04-14T07:00:59.568Z,30.3
2019-04-14T07:01:51.068Z,30.3
2019-04-14T07:02:40.516Z,30.3
2019-04-14T07:05:05.785Z,30.1
2019-04-14T07:05:56.096Z,30.1
2019-04-14T07:06:46.545Z,29.9
2019-04-14T07:07:34.607Z,29.9
2019-04-14T07:08:26.259Z,29.9
2019-04-14T07:09:15.925Z,29.8
2019-04-14T07:10:06.690Z,29.8
2019-04-14T07:10:56.672Z,29.8
2019-04-14T07:11:46.230Z,29.7
2019-04-14T07:12:36.891Z,29.6
2019-04-14T07:13:28.048Z,29.6
2019-04-14T07:14:15.430Z,29.5
2019-04-14T07:15:07.287Z,29.4
2019-04-14T07:15:57.348Z,29.3
2019-04-14T07:16:47.773Z,29.3
2019-04-14T07:17:37.505Z,29.2
2019-04-14T07:18:26.463Z,29.1
2019-04-14T07:19:17.637Z,29.1
2019-04-14T07:20:09.834Z,29
2019-04-14T07:20:57.858Z,28.9
2019-04-14T07:21:47.302Z,28.9
2019-04-14T07:22:37.554Z,28.8
2019-04-14T07:23:27.351Z,28.7
2019-04-14T07:24:17.147Z,28.6
2019-04-14T07:25:07.302Z,28.5
2019-04-14T07:25:57.769Z,28.4
2019-04-14T07:26:48.417Z,28.3
2019-04-14T07:27:36.965Z,28.3
2019-04-14T07:28:27.819Z,28.1
2019-04-14T07:29:21.196Z,28.1
2019-04-14T07:30:08.177Z,27.9
2019-04-14T07:30:58.191Z,27.9
2019-04-14T07:32:38.102Z,27.7
2019-04-14T07:33:28.066Z,27.6
2019-04-14T07:34:17.863Z,27.5
2019-04-14T07:35:09.080Z,27.4
2019-04-14T07:35:58.796Z,27.4
2019-04-14T07:36:48.316Z,27.3
2019-04-14T07:37:38.411Z,27.3
2019-04-14T07:38:29.010Z,27.1
2019-04-14T07:39:19.127Z,27
2019-04-14T07:40:08.184Z,26.9
2019-04-14T07:40:59.251Z,26.8
2019-04-14T07:41:48.409Z,26.7
2019-04-14T07:42:39.298Z,26.6
2019-04-14T07:43:28.538Z,26.5
2019-04-14T07:44:22.523Z,26.4
2019-04-14T07:45:08.994Z,26.2
2019-04-14T07:45:59.950Z,26
2019-04-14T07:46:49.759Z,27
2019-04-14T07:47:39.730Z,27.9
2019-04-14T07:48:29.768Z,28.8
2019-04-14T07:49:19.270Z,29.3
2019-04-14T07:50:22.490Z,29.8
2019-04-14T07:50:59.939Z,30.3
2019-04-14T07:51:49.570Z,30.6
2019-04-14T07:52:39.403Z,30.8
2019-04-14T07:53:29.121Z,29.8
2019-04-14T07:54:19.695Z,29.7
2019-04-14T07:55:09.740Z,29.5
2019-04-14T07:56:00.097Z,29.3
2019-04-14T07:56:49.090Z,29.1
2019-04-14T07:57:39.600Z,29
2019-04-14T07:58:30.498Z,28.8
2019-04-14T07:59:20.010Z,28.7
2019-04-14T08:00:09.812Z,28.4
2019-04-14T08:01:00.180Z,28.3
2019-04-14T08:01:50.442Z,28.2
2019-04-14T08:02:39.708Z,28.1
2019-04-14T08:03:30.411Z,28
2019-04-14T08:05:09.964Z,27.6
2019-04-14T08:06:00.503Z,27.5
2019-04-14T08:06:51.209Z,27.4
2019-04-14T08:07:40.072Z,27.4
2019-04-14T08:08:30.664Z,27.4
2019-04-14T08:09:21.533Z,27.4
2019-04-14T08:10:10.844Z,27.3
2019-04-14T08:11:00.299Z,27.3
2019-04-14T08:11:51.029Z,27.2
2019-04-14T08:12:42.261Z,27.1
2019-04-14T08:13:31.329Z,27.1
2019-04-14T08:14:21.382Z,27
2019-04-14T08:15:11.210Z,26.9
2019-04-14T08:16:00.496Z,26.8
2019-04-14T08:16:52.196Z,26.7
2019-04-14T08:17:40.020Z,26.6
2019-04-14T08:18:31.964Z,26.6
2019-04-14T08:19:21.756Z,26.4
2019-04-14T08:20:11.584Z,26.4
2019-04-14T08:21:01.936Z,26.3
2019-04-14T08:21:51.418Z,26.3
2019-04-14T08:22:41.476Z,26.2
2019-04-14T08:23:31.746Z,26.1
2019-04-14T08:24:20.766Z,26
2019-04-14T08:25:11.327Z,25.9
2019-04-14T08:26:02.471Z,25.8
2019-04-14T08:26:51.586Z,25.8
2019-04-14T08:27:42.869Z,25.7
2019-04-14T08:28:32.384Z,25.6
2019-04-14T08:29:22.011Z,25.5
2019-04-14T08:30:12.575Z,25.5
2019-04-14T08:31:02.683Z,25.4
2019-04-14T08:31:52.363Z,25.3
2019-04-14T08:32:42.831Z,25.3
2019-04-14T08:33:32.837Z,25.2
2019-04-14T08:34:23.426Z,25.1
2019-04-14T08:35:12.323Z,25
2019-04-14T08:36:03.513Z,24.9
2019-04-14T08:36:52.262Z,24.8
2019-04-14T08:37:42.508Z,24.8
2019-04-14T08:38:33.140Z,24.5
2019-04-14T08:39:23.173Z,25.6
2019-04-14T08:40:13.008Z,26.8
2019-04-14T08:41:02.515Z,27.8
2019-04-14T08:41:52.772Z,28.6
2019-04-14T08:42:43.155Z,29.2
2019-04-14T08:43:32.970Z,29.7
2019-04-14T08:44:23.012Z,30.2
2019-04-14T08:45:13.945Z,30.6
2019-04-14T08:46:03.165Z,30.7
2019-04-14T08:46:53.479Z,30
2019-04-14T08:47:43.341Z,30
2019-04-14T08:48:33.019Z,29.9
2019-04-14T08:49:24.220Z,29.9
2019-04-14T08:50:13.982Z,29.8
2019-04-14T08:51:04.024Z,29.7
2019-04-14T08:51:54.165Z,29.6
2019-04-14T08:52:44.180Z,29.5
2019-04-14T08:53:33.622Z,29.4
2019-04-14T08:54:24.294Z,29.3
2019-04-14T08:55:14.660Z,29.3
2019-04-14T08:56:04.126Z,29.2
2019-04-14T08:56:53.957Z,29.1
2019-04-14T08:57:44.314Z,29.1
2019-04-14T08:58:33.211Z,29
2019-04-14T08:59:23.594Z,28.9
2019-04-14T09:00:14.492Z,28.9
2019-04-14T09:01:04.258Z,28.8
2019-04-14T09:01:53.867Z,28.7
2019-04-14T09:02:43.563Z,28.6
2019-04-14T09:03:34.661Z,28.5
2019-04-14T09:04:24.196Z,28.4
2019-04-14T09:05:14.376Z,28.4
2019-04-14T09:06:04.114Z,28.3
2019-04-14T09:06:55.489Z,28.1
2019-04-14T09:07:45.233Z,28.1
2019-04-14T09:08:35.021Z,27.9
2019-04-14T09:09:24.845Z,27.9
2019-04-14T09:11:05.464Z,27.7
2019-04-14T09:11:55.571Z,27.6
2019-04-14T09:12:45.354Z,27.4
2019-04-14T09:13:35.201Z,27.4
2019-04-14T09:14:26.109Z,27.3
2019-04-14T09:15:15.653Z,27.1
2019-04-14T09:16:04.898Z,27.1
2019-04-14T09:16:55.940Z,26.9
2019-04-14T09:17:45.773Z,26.8
2019-04-14T09:18:35.893Z,26.7
2019-04-14T09:19:25.936Z,26.6
2019-04-14T09:20:15.007Z,26.6
2019-04-14T09:21:04.410Z,26.4
2019-04-14T09:21:56.845Z,26.4
2019-04-14T09:22:46.415Z,26.3
2019-04-14T09:23:36.452Z,26.2
2019-04-14T09:24:25.236Z,26.1
2019-04-14T09:25:16.270Z,26
2019-04-14T09:26:06.362Z,25.9
2019-04-14T09:26:56.652Z,25.8
2019-04-14T09:27:46.187Z,25.8
2019-04-14T09:28:37.347Z,25.6
2019-04-14T09:29:26.692Z,25.6
2019-04-14T09:30:16.892Z,25.5
2019-04-14T09:31:06.493Z,25.4
2019-04-14T09:31:57.580Z,25.1
2019-04-14T09:32:47.117Z,26
2019-04-14T09:33:37.492Z,27
2019-04-14T09:34:27.202Z,28
2019-04-14T09:35:16.770Z,28.7
2019-04-14T09:36:06.797Z,29.3
2019-04-14T09:36:56.892Z,29.7
2019-04-14T09:37:47.569Z,30.1
2019-04-14T09:38:37.518Z,30.5
2019-04-14T09:39:27.367Z,30.9
2019-04-14T09:40:17.045Z,30.3
2019-04-14T09:41:07.144Z,30
2019-04-14T09:41:57.766Z,30
2019-04-14T09:42:47.013Z,29.9
2019-04-14T09:43:38.144Z,29.9
2019-04-14T09:44:27.415Z,29.8
2019-04-14T09:45:17.730Z,29.7
2019-04-14T09:46:08.072Z,29.6
2019-04-14T09:46:57.599Z,29.5
2019-04-14T09:47:48.011Z,29.4
2019-04-14T09:48:37.758Z,29.3
2019-04-14T09:49:27.504Z,29.3
2019-04-14T09:50:17.011Z,29.2
2019-04-14T09:51:12.351Z,29.1
2019-04-14T09:51:58.216Z,29.1
2019-04-14T09:52:48.320Z,29
2019-04-14T09:53:38.051Z,28.9
2019-04-14T09:54:28.663Z,28.8
2019-04-14T09:55:19.022Z,28.8
2019-04-14T09:56:09.133Z,28.6
2019-04-14T09:56:58.640Z,28.5
2019-04-14T09:57:48.838Z,28.4
2019-04-14T09:58:38.970Z,28.3
2019-04-14T09:59:29.330Z,28.3
2019-04-14T10:00:18.043Z,28.1
2019-04-14T10:01:12.023Z,28.1
2019-04-14T10:01:58.860Z,27.9
2019-04-14T10:03:40.002Z,27.8
2019-04-14T10:06:06.630Z,27.4
2019-04-14T10:06:56.641Z,27.4
2019-04-14T10:07:46.580Z,27.3
2019-04-14T10:08:35.064Z,27.1
2019-04-14T10:09:26.765Z,27.1
2019-04-14T10:10:17.290Z,26.9
2019-04-14T10:11:06.310Z,26.8
2019-04-14T10:12:03.707Z,26.8
2019-04-14T10:12:47.020Z,26.6
2019-04-14T10:13:36.442Z,26.5
2019-04-14T10:14:25.957Z,26.4
2019-04-14T10:15:16.316Z,26.3
2019-04-14T10:16:06.100Z,26.3
2019-04-14T10:16:56.963Z,26.1
2019-04-14T10:17:45.981Z,26.1
2019-04-14T10:18:36.539Z,26
2019-04-14T10:19:25.476Z,25.9
2019-04-14T10:20:17.461Z,25.8
2019-04-14T10:21:21.024Z,25.8
2019-04-14T10:21:56.809Z,25.7
2019-04-14T10:22:46.579Z,25.7
2019-04-14T10:23:40.450Z,25.6
2019-04-14T10:24:27.315Z,25.6
2019-04-14T10:25:17.041Z,25.6
2019-04-14T10:26:07.404Z,25.2
2019-04-14T10:26:56.849Z,26.1
2019-04-14T10:27:47.549Z,27.2
2019-04-14T10:28:37.504Z,28.2
2019-04-14T10:29:27.069Z,28.9
2019-04-14T10:30:17.982Z,29.4
2019-04-14T10:31:07.726Z,29.9
2019-04-14T10:31:58.319Z,30.3
2019-04-14T10:32:47.273Z,30.7
2019-04-14T10:33:38.217Z,31.1
2019-04-14T10:34:27.469Z,31.1
2019-04-14T10:35:18.086Z,30.4
2019-04-14T10:36:07.914Z,30.4
2019-04-14T10:36:57.402Z,30.4
2019-04-14T10:37:47.331Z,30.4
2019-04-14T10:38:38.250Z,30.3
2019-04-14T10:39:26.183Z,30.2
2019-04-14T10:40:17.663Z,30.1
2019-04-14T10:41:08.807Z,30.1
2019-04-14T10:41:58.298Z,30
2019-04-14T10:42:49.125Z,29.9
2019-04-14T10:43:38.934Z,29.9
2019-04-14T10:44:28.183Z,29.8
2019-04-14T10:45:21.541Z,29.8
2019-04-14T10:46:08.882Z,29.6
2019-04-14T10:46:58.903Z,29.6
2019-04-14T10:47:48.432Z,29.5
2019-04-14T10:48:38.784Z,29.4
2019-04-14T10:49:28.562Z,29.4
2019-04-14T10:50:33.046Z,29.3
2019-04-14T10:51:09.756Z,29.2
2019-04-14T10:51:59.554Z,29.1
2019-04-14T10:52:48.776Z,29.1
2019-04-14T10:53:39.726Z,29
2019-04-14T10:54:29.904Z,28.9
2019-04-14T10:55:19.556Z,28.8
2019-04-14T10:56:10.124Z,28.8
2019-04-14T10:57:03.142Z,28.6
2019-04-14T10:57:49.757Z,28.6
2019-04-14T10:58:40.301Z,28.4
2019-04-14T10:59:30.376Z,28.4
2019-04-14T11:00:19.653Z,28.3
2019-04-14T11:01:09.698Z,28.1
2019-04-14T11:02:00.614Z,28.1
2019-04-14T11:02:49.557Z,27.9
2019-04-14T11:04:29.864Z,27.8
2019-04-14T11:05:20.802Z,27.7
2019-04-14T11:06:09.467Z,27.6
2019-04-14T11:07:00.621Z,27.5
2019-04-14T11:07:50.756Z,27.4
2019-04-14T11:08:40.465Z,27.3
2019-04-14T11:09:29.961Z,27.2
2019-04-14T11:10:20.064Z,27.1
2019-04-14T11:11:11.480Z,27.1
2019-04-14T11:11:59.394Z,26.9
2019-04-14T11:12:50.609Z,26.9
2019-04-14T11:13:40.836Z,26.8
2019-04-14T11:14:29.843Z,26.7
2019-04-14T11:15:22.334Z,26.6
2019-04-14T11:16:11.049Z,26.5
2019-04-14T11:17:01.045Z,26.5
2019-04-14T11:17:51.424Z,26.4
2019-04-14T11:18:41.231Z,26.4
2019-04-14T11:19:30.990Z,26.3
2019-04-14T11:20:21.041Z,26.1
2019-04-14T11:21:11.976Z,25.8
2019-04-14T11:22:01.411Z,26.9
2019-04-14T11:23:05.033Z,27.9
2019-04-14T11:23:41.284Z,29.1
2019-04-14T11:24:31.480Z,29.4
2019-04-14T11:25:21.664Z,29.9
2019-04-14T11:26:11.283Z,30.3
2019-04-14T11:27:02.384Z,30.7
2019-04-14T11:27:52.706Z,31.1
2019-04-14T11:28:42.241Z,31.3
2019-04-14T11:29:32.833Z,30.3
2019-04-14T11:30:22.575Z,30.3
2019-04-14T11:31:11.847Z,30.3
2019-04-14T11:32:02.510Z,30.2
2019-04-14T11:32:51.731Z,30.1
2019-04-14T11:33:41.538Z,30.1
2019-04-14T11:34:32.655Z,30
2019-04-14T11:35:24.343Z,29.9
2019-04-14T11:36:13.068Z,29.8
2019-04-14T11:37:02.638Z,29.8
2019-04-14T11:37:52.460Z,29.7
2019-04-14T11:38:42.780Z,29.6
2019-04-14T11:39:32.848Z,29.6
2019-04-14T11:40:22.493Z,29.5
2019-04-14T11:41:13.487Z,29.4
2019-04-14T11:42:03.873Z,29.4
2019-04-14T11:43:00.517Z,29.3
2019-04-14T11:43:43.475Z,29.2
2019-04-14T11:44:33.224Z,29.1
2019-04-14T11:45:23.745Z,29.1
2019-04-14T11:46:14.147Z,29
2019-04-14T11:47:02.797Z,28.9
2019-04-14T11:47:53.945Z,28.8
2019-04-14T11:48:43.384Z,28.7
2019-04-14T11:49:33.519Z,28.6
2019-04-14T11:50:23.099Z,28.5
2019-04-14T11:51:12.815Z,28.4
2019-04-14T11:52:03.964Z,28.3
2019-04-14T11:52:53.177Z,28.3
2019-04-14T11:53:44.594Z,28.1
2019-04-14T11:54:34.393Z,28.1
2019-04-14T11:55:22.857Z,27.9
2019-04-14T11:57:04.057Z,27.7
2019-04-14T11:57:54.016Z,27.6
2019-04-14T11:58:44.750Z,27.5
2019-04-14T11:59:33.669Z,27.4
2019-04-14T12:00:24.716Z,27.3
2019-04-14T12:01:14.034Z,27.1
2019-04-14T12:02:04.794Z,27.1
2019-04-14T12:02:54.794Z,26.9
2019-04-14T12:03:44.546Z,26.8
2019-04-14T12:06:35.693Z,26.6
2019-04-14T12:07:12.300Z,26.3
2019-04-14T12:08:01.228Z,26.3
2019-04-14T12:08:35.901Z,26.2
2019-04-14T12:09:26.297Z,26.1
2019-04-14T12:10:16.538Z,26
2019-04-14T12:11:06.925Z,25.9
2019-04-14T12:11:57.008Z,25.8
2019-04-14T12:12:46.079Z,25.8
2019-04-14T12:13:35.596Z,25.6
2019-04-14T12:14:42.490Z,25.6
2019-04-14T12:15:24.328Z,25.2
2019-04-14T12:16:06.603Z,25.6
2019-04-14T12:16:57.503Z,26.7
2019-04-14T12:17:47.083Z,27.6
2019-04-14T12:18:52.232Z,28.5
2019-04-14T12:19:41.971Z,29.4
2019-04-14T12:20:16.490Z,29.7
2019-04-14T12:21:07.525Z,29.9
2019-04-14T12:22:10.852Z,30.4
2019-04-14T12:22:46.768Z,30.9
2019-04-14T12:23:37.114Z,31
2019-04-14T12:24:27.407Z,30.1
2019-04-14T12:25:18.350Z,30.1
2019-04-14T12:26:27.606Z,30.1
2019-04-14T12:26:57.506Z,30
2019-04-14T12:27:55.725Z,29.9
2019-04-14T12:28:46.940Z,29.8
2019-04-14T12:29:52.194Z,29.7
2019-04-14T12:30:29.015Z,29.6
2019-04-14T12:31:17.925Z,29.5
2019-04-14T12:32:19.347Z,29.4
2019-04-14T12:32:47.987Z,29.3
2019-04-14T12:33:38.832Z,29.3
2019-04-14T12:34:41.884Z,29.2
2019-04-14T12:35:33.269Z,29.2
2019-04-14T12:36:09.066Z,29.1
2019-04-14T12:36:59.377Z,29
2019-04-14T12:37:48.885Z,28.9
2019-04-14T12:38:38.260Z,28.9
2019-04-14T12:39:28.023Z,28.8
2019-04-14T12:40:17.551Z,28.7
2019-04-14T12:41:47.223Z,28.6
2019-04-14T12:41:59.230Z,28.4
2019-04-14T12:42:48.252Z,28.4
2019-04-14T12:43:38.809Z,28.3
2019-04-14T12:44:28.644Z,28.3
2019-04-14T12:45:20.254Z,28.1
2019-04-14T12:46:11.883Z,28.1
2019-04-14T12:46:58.756Z,28
2019-04-14T12:47:49.520Z,27.9